Camp Williams, Utah
Current Conditions -  °F | °C
As of 4:53 PM on Wednesday 26 Nov 2014 (Local Time) from KSLC Reporting Station
Broken Clouds Broken Clouds  
Wind Chill: 57°   Ceiling: 23000
Heat Index: 57°   Visibility: 10mi
Dew Point: 27°   Wind: 3mph
Humidity: 32%   Direction: 160°SSE
Pressure: 30.35"   Gusts: NA
Location:  40.5353°N, 111.962°W
Report Text: KSLC 262353Z 16003KT 10SM FEW070 SCT140 BKN230 14/M03 A3035 RMK AO2 SLP265 ACSL DSNT ALQDS T01391028 10161 20117 58002
Loading
Personal Weather Stations






























Interactive Weather Map New forecast layout! Learn more

10-Day Weather Forecast

Advertisements
Track Severe Weather on mobile